Strona główna
METAR-TAF:

METAR-TAF

Lotnisko :

Montauk, Nowy Jork, Stany Zjednoczone

Szerokość geograficzna: 41-04-23N, Długość geograficzna: 071-55-24W, wysokość: 2 m

Aktualna obserwacja pogody

Raport powstał 54 minut temu, godzina 08:54 UTC
Wiatr 7 kt od północny zachód
Temperatura 3°C
Wilgotność 60%
Ciśnienie 1017 hPa

METAR: KMTP 210854Z AUTO 32007KT 03/M04 A3004 RMK AO1 SLP171 T00281044 50008

czas: 04:48 (09:48 UTC)


TAF: brakujący

Obserwacja i prognoza pogody dla ponad 4000 lotnisk (raport METAR i TAF).

Dostępne stacje oznaczono żółtymi i czerwonymi punktami na mapie.

Najedź kursorem aby zobaczyć nazwę stacji.

Kliknij aby zobaczyć obserwacje i prognozy pogody.

Aby zmienić mapę: kliknij na zielony przycisk z czarnym krzyżykiem, aby powiększyć; na zielony przycisk z myślnikiem, aby pomniejszyć; na zielone strzałki, aby przejść do map sąsiednich.


METAR-TAF: